Data for 02/27/2008

Time Sea-Level Adjusted Pressure Absolute Pressure Temperature Relative Humidity Dew Point   
(mb) (inHg) (mb) (inHg) (C) (F) (%) (C) (F)
00:05 1024 30.24 853 25.19 -1.6 29.1 78 -5 23
00:10 1024 30.24 853 25.19 -1.6 29.1 78 -5 22.9
00:15 1024 30.24 853 25.19 -1.7 29 78 -5.1 22.8
00:20 1024 30.24 853 25.19 -1.7 29 77 -5.1 22.8
00:25 1024 30.24 853 25.19 -1.7 29 78 -5.1 22.8
00:30 1024 30.24 853 25.19 -1.7 29 78 -5.1 22.9
00:35 1024 30.24 853 25.19 -1.6 29.1 78 -5 23
00:40 1024 30.24 853 25.19 -1.5 29.3 77 -5 23
00:45 1024 30.24 853 25.19 -1.4 29.6 77 -4.9 23.2
00:50 1024 30.24 853 25.19 -1.3 29.6 77 -4.9 23.2
00:55 1024 30.24 853 25.19 -1.3 29.6 77 -4.9 23.2
01:00 1024 30.24 854 25.22 -1.3 29.7 77 -4.8 23.3
01:05 1024 30.24 854 25.22 -1 30.2 76 -4.7 23.5
01:10 1024 30.24 854 25.22 -0.9 30.3 76 -4.7 23.6
01:15 1024 30.24 853 25.19 -0.8 30.5 75 -4.7 23.6
01:20 1024 30.24 853 25.19 -0.8 30.5 75 -4.7 23.6
01:25 1024 30.24 853 25.19 -0.9 30.4 75 -4.8 23.4
01:30 1024 30.24 853 25.19 -1.3 29.7 76 -4.9 23.2
01:35 1024 30.24 853 25.19 -1.3 29.6 77 -4.9 23.1
01:40 1024 30.24 853 25.19 -1.4 29.4 77 -5 22.9
01:45 1024 30.24 853 25.19 -1.3 29.6 77 -4.9 23.1
01:50 1024 30.24 853 25.19 -1.3 29.6 76 -5.1 22.9
01:55 1024 30.24 853 25.19 -1.2 29.8 75 -5 22.9
02:00 1024 30.24 853 25.19 -1.2 29.9 75 -5.1 22.9
02:05 1024 30.24 853 25.19 -0.9 30.3 74 -5 23
02:10 1024 30.24 853 25.19 -1.1 30.1 74 -5.1 22.9
02:15 1024 30.24 853 25.19 -1.2 29.8 74 -5.2 22.6
02:20 1024 30.24 853 25.19 -1.3 29.6 75 -5.2 22.6
02:25 1024 30.24 853 25.19 -1.6 29 76 -5.3 22.4
02:30 1024 30.24 853 25.19 -1.7 28.9 76 -5.4 22.3
02:35 1024 30.24 853 25.19 -2.1 28.2 78 -5.5 22.1
02:40 1024 30.24 853 25.19 -2.4 27.7 79 -5.6 21.9
02:45 1024 30.24 853 25.19 -2.6 27.4 79 -5.7 21.8
02:50 1024 30.24 853 25.19 -2.7 27.2 80 -5.6 21.9
02:55 1024 30.24 853 25.19 -3 26.7 81 -5.8 21.6
03:00 1024 30.24 853 25.19 -3 26.7 82 -5.6 21.8
03:05 1024 30.24 853 25.19 -2.8 26.9 81 -5.6 21.9
03:10 1024 30.24 853 25.19 -2.9 26.8 82 -5.5 22.2
03:15 1024 30.24 853 25.19 -2.9 26.8 82 -5.5 22.2
03:20 1024 30.24 853 25.19 -2.8 26.9 82 -5.5 22.1
03:25 1024 30.24 853 25.19 -2.8 27 82 -5.4 22.2
03:30 1024 30.24 853 25.19 -2.7 27.1 82 -5.4 22.2
03:35 1023 30.21 853 25.19 -2.8 27 81 -5.6 22
03:40 1023 30.21 853 25.19 -2.9 26.7 81 -5.8 21.6
03:45 1023 30.21 852 25.16 -3.1 26.5 81 -5.9 21.3
03:50 1023 30.21 852 25.16 -3.2 26.2 81 -6.1 21.1
03:55 1023 30.21 852 25.16 -3.4 25.9 81 -6.2 20.8
04:00 1023 30.21 852 25.16 -3.5 25.8 81 -6.3 20.7
04:05 1023 30.21 852 25.16 -3.7 25.3 81 -6.5 20.2
04:10 1023 30.21 852 25.16 -3.9 24.9 81 -6.6 20
04:15 1023 30.21 852 25.16 -3.9 25 81 -6.6 20.1
04:20 1023 30.21 852 25.16 -3.9 25 81 -6.6 20
04:25 1023 30.21 852 25.16 -3.9 25 82 -6.5 20.3
04:30 1023 30.21 852 25.16 -3.7 25.3 82 -6.3 20.6
04:35 1023 30.21 852 25.16 -3.6 25.5 82 -6.3 20.6
04:40 1023 30.21 852 25.16 -3.6 25.5 81 -6.4 20.5
04:45 1023 30.21 852 25.16 -3.6 25.5 81 -6.4 20.5
04:50 1023 30.21 852 25.16 -3 26.6 80 -6 21.1
04:55 1023 30.21 852 25.16 -3.1 26.5 79 -6.2 20.8
05:00 1023 30.21 852 25.16 -3.7 25.4 80 -6.6 20.2
05:05 1023 30.21 852 25.16 -3.8 25.2 81 -6.6 20.2
05:10 1023 30.21 852 25.16 -3.4 25.8 81 -6.2 20.8
05:15 1023 30.21 852 25.16 -2.9 26.8 80 -5.9 21.4
05:20 1023 30.21 852 25.16 -3.2 26.2 80 -6.2 20.8
05:25 1023 30.21 852 25.16 -3.8 25.1 82 -6.5 20.2
05:30 1023 30.21 852 25.16 -3.6 25.5 82 -6.3 20.7
05:35 1023 30.21 852 25.16 -3.3 26 80 -6.2 20.8
05:40 1023 30.21 852 25.16 -3.4 25.8 81 -6.3 20.7
05:45 1023 30.21 852 25.16 -3.3 26.1 80 -6.2 20.8
05:50 1023 30.21 852 25.16 -3.2 26.2 80 -6.2 20.8
05:55 1023 30.21 852 25.16 -3.2 26.2 80 -6.2 20.9
06:00 1023 30.21 852 25.16 -3.1 26.4 81 -6 21.2
06:05 1023 30.21 852 25.16 -2.9 26.8 80 -5.9 21.3
06:10 1023 30.21 852 25.16 -3 26.5 79 -6.2 20.9
06:15 1023 30.21 852 25.16 -3.3 26 80 -6.4 20.5
06:20 1023 30.21 852 25.16 -3.4 25.9 80 -6.4 20.4
06:25 1023 30.21 852 25.16 -3.4 25.9 80 -6.4 20.6
06:30 1023 30.21 852 25.16 -3.2 26.3 80 -6.2 20.9
06:35 1023 30.21 852 25.16 -3 26.5 80 -6.1 21.1
06:40 1023 30.21 852 25.16 -2.8 27 79 -5.9 21.5
06:45 1023 30.21 852 25.16 -2.4 27.6 79 -5.7 21.8
06:50 1023 30.21 852 25.16 -2.3 27.8 77 -5.8 21.6
06:55 1023 30.21 852 25.16 -2.6 27.3 78 -6 21.2
07:00 1023 30.21 852 25.16 -2.7 27.1 78 -6 21.2
07:05 1022 30.18 852 25.16 -2.5 27.4 78 -5.9 21.3
07:10 1022 30.18 852 25.16 -2.5 27.5 78 -5.9 21.4
07:15 1022 30.18 852 25.16 -2.8 27 78 -6.1 21.1
07:20 1022 30.18 852 25.16 -3 26.7 79 -6 21.1
07:25 1022 30.18 852 25.16 -2.6 27.4 79 -5.8 21.6
07:30 1022 30.18 852 25.16 -2.5 27.5 79 -5.7 21.8
07:35 1022 30.18 851 25.13 -2.6 27.3 80 -5.7 21.8
07:40 1022 30.18 852 25.16 -2.7 27.1 80 -5.8 21.5
07:45 1022 30.18 851 25.13 -2.6 27.4 79 -5.7 21.8
07:50 1022 30.18 851 25.13 -2.3 27.9 78 -5.6 21.9
07:55 1022 30.18 851 25.13 -2.3 27.8 78 -5.6 21.9
08:00 1022 30.18 851 25.13 -2.6 27.4 79 -5.7 21.8
08:05 1022 30.18 851 25.13 -2.6 27.3 80 -5.6 21.9
08:10 1022 30.18 851 25.13 -2.4 27.7 80 -5.5 22.2
08:15 1022 30.18 851 25.13 -2.2 28.1 79 -5.3 22.4
08:20 1022 30.18 851 25.13 -1.7 29 78 -5 22.9
08:25 1022 30.18 851 25.13 -1.4 29.5 77 -4.9 23.1
08:30 1022 30.18 851 25.13 -1.2 29.8 76 -4.9 23.1
08:35 1022 30.18 851 25.13 -1 30.1 75 -4.9 23.1
08:40 1022 30.18 851 25.13 -0.8 30.6 73 -5 23
08:45 1022 30.18 851 25.13 -0.6 31 72 -4.9 23.1
08:50 1022 30.18 851 25.13 -0.3 31.4 72 -4.8 23.4
08:55 1022 30.18 851 25.13 -0 32 71 -4.7 23.5
09:00 1022 30.18 851 25.13 0.3 32.5 71 -4.4 24
09:05 1022 30.18 851 25.13 0.8 33.4 69 -4.3 24.3
09:10 1022 30.18 851 25.13 0.9 33.7 68 -4.3 24.3
09:15 1022 30.18 851 25.13 0.7 33.3 68 -4.5 23.9
09:20 1022 30.18 851 25.13 -0 31.9 71 -4.7 23.5
09:25 1022 30.18 851 25.13 -0.1 31.8 72 -4.6 23.8
09:30 1022 30.18 851 25.13 0.3 32.5 72 -4.3 24.3
09:35 1022 30.18 851 25.13 0.8 33.5 70 -3.9 24.9
09:40 1022 30.18 851 25.13 1.3 34.4 68 -4 24.8
09:45 1022 30.18 851 25.13 1.4 34.6 66 -4.3 24.3
09:50 1022 30.18 851 25.13 1.3 34.3 66 -4.4 24.1
09:55 1022 30.18 851 25.13 1.6 34.9 64 -4.4 24.1
10:00 1022 30.18 851 25.13 1.9 35.5 63 -4.4 24.1
10:05 1022 30.18 851 25.13 2.3 36.1 61 -4.6 23.8
10:10 1022 30.18 851 25.13 1.9 35.4 60 -5.1 22.7
10:15 1022 30.18 851 25.13 1.7 35.1 60 -5.2 22.6
10:20 1022 30.18 851 25.13 2.5 36.4 58 -5 23
10:25 1022 30.18 851 25.13 2.8 37 57 -4.9 23.2
10:30 1022 30.18 851 25.13 3.5 38.3 57 -4.3 24.2
10:35 1022 30.18 851 25.13 4.1 39.3 52 -4.8 23.3
10:40 1022 30.18 851 25.13 3.8 38.8 51 -5.5 22.1
10:45 1022 30.18 851 25.13 3.6 38.4 52 -5.4 22.2
10:50 1022 30.18 851 25.13 4.1 39.3 51 -5.3 22.5
10:55 1022 30.18 851 25.13 4.1 39.3 50 -5.4 22.2
11:00 1021 30.15 851 25.13 4 39.2 49 -5.9 21.5
11:05 1021 30.15 851 25.13 4.8 40.7 47 -5.6 21.9
11:10 1021 30.15 850 25.1 5.6 42 45 -5.4 22.3
11:15 1021 30.15 850 25.1 5.9 42.6 44 -5.4 22.2
11:20 1021 30.15 850 25.1 6.1 42.9 44 -5.3 22.5
11:25 1021 30.15 850 25.1 5.7 42.2 45 -5.4 22.3
11:30 1021 30.15 850 25.1 5.5 42 46 -5.3 22.5
11:35 1021 30.15 850 25.1 5.5 41.9 48 -4.7 23.5
11:40 1021 30.15 850 25.1 5.9 42.6 48 -4.2 24.4
11:45 1021 30.15 850 25.1 5.9 42.6 49 -4 24.8
11:50 1020 30.12 850 25.1 5.8 42.4 49 -4.2 24.4
11:55 1020 30.12 849 25.07 5.9 42.6 49 -3.9 24.9
12:00 1020 30.12 849 25.07 5.8 42.5 49 -4.1 24.5
12:05 1020 30.12 849 25.07 5.8 42.5 47 -4.7 23.5
12:10 1020 30.12 849 25.07 5.9 42.6 47 -4.5 23.9
12:15 1020 30.12 849 25.07 6 42.9 46 -4.7 23.5
12:20 1020 30.12 849 25.07 6.9 44.4 45 -4.1 24.7
12:25 1020 30.12 849 25.07 6.9 44.5 46 -3.9 25.1
12:30 1019 30.09 849 25.07 7.5 45.5 45 -3.7 25.4
12:35 1019 30.09 849 25.07 7.2 45 46 -3.7 25.3
12:40 1019 30.09 848 25.04 6.4 43.6 48 -3.9 25
12:45 1019 30.09 848 25.04 5.5 42 50 -4.1 24.7
12:50 1019 30.09 848 25.04 4.6 40.3 53 -4.1 24.6
12:55 1019 30.09 848 25.04 5.1 41.3 52 -3.9 25
13:00 1019 30.09 848 25.04 6.1 42.9 49 -3.8 25.2
13:05 1019 30.09 848 25.04 6 42.8 50 -3.7 25.3
13:10 1018 30.06 848 25.04 6 42.8 49 -4 24.8
13:15 1018 30.06 848 25.04 6.4 43.5 48 -3.7 25.3
13:20 1018 30.06 847 25.01 6.7 44 48 -3.7 25.3
13:25 1018 30.06 847 25.01 7 44.6 47 -3.5 25.8
13:30 1018 30.06 847 25.01 6.8 44.2 48 -3.5 25.7
13:35 1018 30.06 847 25.01 6.7 44 48 -3.6 25.6
13:40 1018 30.06 847 25.01 6.5 43.7 50 -3.1 26.4
13:45 1018 30.06 847 25.01 7.1 44.7 49 -3 26.6
13:50 1018 30.06 847 25.01 7 44.7 49 -3 26.5
13:55 1018 30.06 847 25.01 7.1 44.9 49 -2.8 26.9
14:00 1018 30.06 847 25.01 6.1 43 53 -2.6 27.3
14:05 1018 30.06 847 25.01 5.7 42.3 53 -3 26.6
14:10 1017 30.03 847 25.01 5.7 42.3 54 -2.9 26.7
14:15 1017 30.03 847 25.01 5.6 42.1 55 -2.8 27
14:20 1017 30.03 847 25.01 5.2 41.4 55 -3 26.6
14:25 1017 30.03 847 25.01 4.7 40.5 57 -3.1 26.5
14:30 1017 30.03 846 24.98 4.5 40 59 -2.9 26.7
14:35 1017 30.03 846 24.98 4.5 40.2 58 -2.9 26.8
14:40 1017 30.03 846 24.98 4.5 40.2 59 -2.7 27.2
14:45 1017 30.03 846 24.98 4.3 39.8 60 -2.8 27
14:50 1017 30.03 846 24.98 4.6 40.4 60 -2.6 27.4
14:55 1017 30.03 846 24.98 4.8 40.6 59 -2.5 27.6
15:00 1017 30.03 846 24.98 4.7 40.4 60 -2.4 27.7
15:05 1017 30.03 846 24.98 4.7 40.4 60 -2.4 27.7
15:10 1017 30.03 846 24.98 4.4 39.8 62 -2.3 27.8
15:15 1017 30.03 846 24.98 4.1 39.5 62 -2.5 27.5
15:20 1017 30.03 846 24.98 3.3 37.9 64 -3 26.7
15:25 1017 30.03 846 24.98 3.1 37.6 64 -3.1 26.4
15:30 1017 30.03 846 24.98 3.2 37.7 63 -3.2 26.3
15:35 1017 30.03 847 25.01 3.4 38.2 62 -3.1 26.4
15:40 1017 30.03 847 25.01 3.5 38.3 62 -3.1 26.5
15:45 1017 30.03 847 25.01 3.7 38.6 62 -2.9 26.8
15:50 1017 30.03 847 25.01 3.6 38.5 60 -3.4 25.9
15:55 1017 30.03 847 25.01 3.2 37.8 62 -3.3 26.1
16:00 1017 30.03 847 25.01 3.3 37.9 63 -3 26.6
16:05 1017 30.03 846 24.98 3.3 37.9 63 -3 26.5
16:10 1017 30.03 846 24.98 2.8 37.1 66 -2.9 26.8
16:15 1017 30.03 846 24.98 2.5 36.6 68 -2.8 27
16:20 1017 30.03 846 24.98 2.4 36.4 69 -2.6 27.4
16:25 1017 30.03 846 24.98 2.4 36.3 68 -2.8 26.9
16:30 1017 30.03 846 24.98 2.7 36.8 68 -2.7 27.1
16:35 1017 30.03 846 24.98 2.9 37.3 66 -2.8 26.9
16:40 1017 30.03 846 24.98 2.8 37 66 -2.9 26.8
16:45 1017 30.03 846 24.98 3 37.4 66 -2.7 27.1
16:50 1017 30.03 846 24.98 3.1 37.7 63 -3.1 26.4
16:55 1017 30.03 846 24.98 3.6 38.4 60 -3.4 25.9
17:00 1017 30.03 846 24.98 3.5 38.3 62 -3.1 26.4
17:05 1017 30.03 846 24.98 3.3 38 64 -2.8 26.9
17:10 1017 30.03 846 24.98 3.1 37.6 66 -2.6 27.3
17:15 1017 30.03 846 24.98 3.2 37.7 65 -2.9 26.9
17:20 1017 30.03 846 24.98 3.7 38.7 64 -2.5 27.5
17:25 1017 30.03 846 24.98 3.8 38.8 62 -2.9 26.8
17:30 1017 30.03 846 24.98 3.3 38 63 -2.9 26.7
17:35 1017 30.03 846 24.98 3.2 37.8 65 -2.7 27.1
17:40 1017 30.03 846 24.98 3.3 37.9 64 -2.8 26.9
17:45 1017 30.03 846 24.98 3.9 39.1 62 -2.7 27.2
17:50 1017 30.03 846 24.98 4 39.2 63 -2.4 27.7
17:55 1017 30.03 846 24.98 3.9 39.1 63 -2.4 27.6
18:00 1016 30 846 24.98 3.8 38.8 64 -2.4 27.7
18:05 1016 30 846 24.98 4.3 39.7 63 -2.2 28
18:10 1016 30 845 24.95 4.7 40.5 63 -1.7 28.9
18:15 1016 30 845 24.95 4.6 40.3 63 -1.8 28.7
18:20 1016 30 845 24.95 4.6 40.3 63 -1.8 28.7
18:25 1016 30 845 24.95 4.6 40.2 64 -1.7 29
18:30 1016 30 845 24.95 4.1 39.3 66 -1.7 29
18:35 1016 30 845 24.95 3.9 39 67 -1.7 28.9
18:40 1016 30 845 24.95 4 39.1 68 -1.5 29.3
18:45 1016 30 845 24.95 3.9 39 69 -1.3 29.6
18:50 1016 30 845 24.95 3.9 39 69 -1.3 29.7
18:55 1016 30 845 24.95 4 39.3 69 -1.2 29.8
19:00 1016 30 845 24.95 4.3 39.8 69 -0.9 30.4
19:05 1016 30 845 24.95 5 41 66 -0.8 30.6
19:10 1016 30 845 24.95 5.4 41.7 65 -0.6 30.8
19:15 1016 30 845 24.95 5.5 41.9 64 -0.9 30.4
19:20 1016 30 845 24.95 5.7 42.3 62 -0.9 30.3
19:25 1016 30 845 24.95 5.8 42.4 62 -1 30.3
19:30 1016 30 845 24.95 5.8 42.5 62 -0.9 30.3
19:35 1016 30 845 24.95 5.8 42.4 62 -0.9 30.4
19:40 1016 30 845 24.95 5.7 42.2 63 -0.8 30.5
19:45 1016 30 845 24.95 5.5 41.9 64 -0.8 30.5
19:50 1016 30 845 24.95 5.3 41.6 65 -0.6 30.8
19:55 1016 30 845 24.95 4.8 40.6 68 -0.6 30.9
20:00 1016 30 845 24.95 4.6 40.3 69 -0.6 30.9
20:05 1016 30 846 24.98 4.5 40 70 -0.5 31
20:10 1016 30 846 24.98 4.4 39.9 70 -0.6 31
20:15 1017 30.03 846 24.98 4.2 39.6 70 -0.7 30.7
20:20 1017 30.03 846 24.98 4 39.1 72 -0.7 30.8
20:25 1017 30.03 846 24.98 3.5 38.3 74 -0.6 30.9
20:30 1016 30 846 24.98 2.8 37 78 -0.7 30.7
20:35 1016 30 846 24.98 2.4 36.3 80 -0.8 30.6
20:40 1016 30 846 24.98 2.3 36.2 81 -0.6 30.9
20:45 1016 30 846 24.98 2.2 36 82 -0.5 31.1
20:50 1016 30 846 24.98 2.2 36 84 -0.2 31.6
20:55 1016 30 846 24.98 2.4 36.3 84 0 32.1
21:00 1017 30.03 846 24.98 2.3 36.2 85 0.1 32.2
21:05 1017 30.03 846 24.98 2.2 35.9 87 0.2 32.4
21:10 1017 30.03 846 24.98 2.2 36 87 0.3 32.6
21:15 1017 30.03 846 24.98 2.2 36 88 0.4 32.8
21:20 1017 30.03 846 24.98 2.5 36.4 88 0.7 33.2
21:25 1017 30.03 846 24.98 2.6 36.7 88 0.8 33.4
21:30 1017 30.03 846 24.98 2.6 36.6 88 0.8 33.4
21:35 1017 30.03 846 24.98 2.4 36.2 89 0.7 33.2
21:40 1017 30.03 846 24.98 1.6 34.9 91 0.4 32.7
21:45 1017 30.03 846 24.98 1.3 34.3 93 0.3 32.5
21:50 1017 30.03 846 24.98 1.4 34.4 94 0.4 32.8
21:55 1017 30.03 846 24.98 1.1 34 95 0.4 32.7
22:00 1017 30.03 846 24.98 1.2 34.1 96 0.5 33
22:05 1017 30.03 846 24.98 1.2 34.1 96 0.6 33.1
22:10 1017 30.03 846 24.98 1.2 34.1 96 0.6 33.2
22:15 1016 30 846 24.98 1.2 34.2 97 0.8 33.4
22:20 1016 30 846 24.98 1.5 34.7 97 1 33.8
22:25 1016 30 846 24.98 1.7 35 96 1.1 34
22:30 1016 30 846 24.98 2.1 35.7 95 1.3 34.4
22:35 1016 30 845 24.95 2.4 36.3 94 1.4 34.6
22:40 1016 30 845 24.95 2.6 36.7 92 1.4 34.6
22:45 1016 30 845 24.95 2.8 37.1 90 1.4 34.5
22:50 1016 30 845 24.95 3 37.5 89 1.3 34.4
22:55 1016 30 845 24.95 3.2 37.8 87 1.2 34.2
23:00 1016 30 846 24.98 3.3 38 86 1.2 34.1
23:05 1016 30 846 24.98 3.4 38.1 85 1 33.9
23:10 1017 30.03 846 24.98 3.4 38.2 84 1 33.9
23:15 1017 30.03 846 24.98 3.3 38 85 1 33.7
23:20 1017 30.03 846 24.98 3.4 38 84 0.9 33.6
23:25 1017 30.03 846 24.98 3.3 38 84 0.8 33.5
23:30 1017 30.03 846 24.98 3.3 37.9 83 0.7 33.3
23:35 1017 30.03 846 24.98 3.3 37.9 83 0.7 33.2
23:40 1017 30.03 846 24.98 3.3 37.9 83 0.7 33.3
23:45 1017 30.03 846 24.98 3.3 37.9 83 0.7 33.2
23:50 1017 30.03 846 24.98 3.2 37.8 83 0.6 33
23:55 1017 30.03 846 24.98 3.2 37.8 82 0.5 32.9
24:00 1017 30.03 846 24.98 3.2 37.8 82 0.5 32.9